Airfield :
LOGIN :

Register | Disclaimer

   EN    FR    IT 

 










Legend :    VFR   Marginal VFR   IFR   Intensive IFR   Very Intensive IFR
Visi :
Ceiling :
>= 8 km
>= 3000ft
5 to 8 km
1000 to 3000 ft
1500m to 5 km
500 to 1000 ft
800 to 1500m
200 to 500 ft
< 800m
< 200 ft
Symbols :   Thunderstorms  Fog  Heavy snow  Heavy precipitations  Wind > 20 kt
SIGMETs :     Misc.  Thunderstorms  Icing  Turbulence  Mountain Waves  Volcanic Ashes






- Airport Elevation : 3 ft
- IATA code : DHR


EHKD - Den Helder De Kooy

CURRENT METAR :
  • 170755Z AUTO 16007KT 9999 NCD 03/02 Q1011 BLU 19008KT 9999 SCT045

EXPIRED METARs :
  • 170725Z AUTO 18005KT 9999 NCD 03/02 Q1011 BLU 19008KT 9999 SCT045
  • 170655Z AUTO 19005KT 9999 NCD 02/01 Q1011 BLU 19008KT 9999 SCT045
  • 170625Z AUTO 19007KT 9999 NCD 03/02 Q1010 BLU 19008KT 9999 SCT045
  • 170555Z AUTO 19008KT 9999 NCD 04/02 Q1010 BLU 19008KT 9999 SCT045
  • 170525Z AUTO 19008KT 9999 OVC047 06/03 Q1010 BLU 19008KT 9999 BKN045

TAF TAF EHKD
Valid from the 17 at 06:00 until the 17 at 18:00 UTC


170539Z 1706/1718 17007KT 9999 FEW045
BECMG 1712/1714 11004KT
BECMG 1714/1716 04005KT



MET'MAP, your aeronautical weather chart ! - Copyright ORBIFLY December 2007 - Disclaimer

ORBIFLY MET'MAP TEAM :

Programming & Development : Alexandra Zaïnal
Concept & Development : Baudouin d'Aumeries
Co-Development & Prog : Marc-Olivier Méhu
Technical & hardware support : Manuel Goepfert

Contact : metmap@orbifly.com




SOURCES & CREDITS :

   NOAA